Time;durP1;ratioP1;P1;durP2;ratioP2;P2;SDS_P1;SDS_P2;PMS_P1;PMS_P2;Temp;Humidity;BMP_temperature;BMP_pressure;BME280_temperature;BME280_humidity;BME280_pressure;Samples;Min_cycle;Max_cycle;Signal;HPM_P1;HPM_P2
2023/07/05 00:02:21;;;;;;;;;;;16.60;99.90;;;;;;7633099;19;19931;-82
2023/07/05 00:04:53;;;;;;;;;;;16.50;99.90;;;;;;7608083;19;19930;-82
2023/07/05 00:07:25;;;;;;;;;;;16.50;99.90;;;;;;7628638;19;19926;-81
2023/07/05 00:09:57;;;;;;;;;;;16.50;99.90;;;;;;7616550;19;19919;-81
2023/07/05 00:12:30;;;;;;;;;;;16.60;99.90;;;;;;7611216;19;21229;-82
2023/07/05 00:15:03;;;;;;;;;;;16.60;99.90;;;;;;7608727;19;19939;-81
2023/07/05 00:17:36;;;;;;;;;;;16.50;99.90;;;;;;7605664;19;20890;-82
2023/07/05 00:20:09;;;;;;;;;;;16.50;99.90;;;;;;7598819;19;19926;-81
2023/07/05 00:22:41;;;;;;;;;;;16.40;99.90;;;;;;7606575;19;19922;-82
2023/07/05 00:25:14;;;;;;;;;;;16.50;99.90;;;;;;7610038;19;19919;-82
2023/07/05 00:27:47;;;;;;;;;;;16.50;99.90;;;;;;7609057;19;19922;-83
2023/07/05 00:30:19;;;;;;;;;;;16.50;99.90;;;;;;7595853;19;19918;-82
2023/07/05 00:32:52;;;;;;;;;;;16.50;99.90;;;;;;7588438;19;19922;-80
2023/07/05 00:35:25;;;;;;;;;;;16.30;99.90;;;;;;7601344;19;19914;-82
2023/07/05 00:37:57;;;;;;;;;;;16.20;99.90;;;;;;7606881;19;21949;-80
2023/07/05 00:40:29;;;;;;;;;;;16.30;99.90;;;;;;7609861;19;20550;-81
2023/07/05 00:43:01;;;;;;;;;;;16.30;99.90;;;;;;7599030;19;19959;-81
2023/07/05 00:45:53;;;;;;;;;;;16.30;99.90;;;;;;7603544;19;19975;-81
2023/07/05 00:48:32;;;;;;;;;;;16.10;99.90;;;;;;7620238;19;19915;-81
2023/07/05 00:51:12;;;;;;;;;;;16.10;99.90;;;;;;7617487;19;19926;-83
2023/07/05 00:53:44;;;;;;;;;;;16.20;99.90;;;;;;7632810;19;19926;-81
2023/07/05 00:56:26;;;;;;;;;;;16.10;99.90;;;;;;7622704;19;20801;-82
2023/07/05 00:58:59;;;;;;;;;;;16.10;99.90;;;;;;7620819;19;19922;-81
2023/07/05 01:01:31;;;;;;;;;;;16.10;99.90;;;;;;7615448;19;19926;-82
2023/07/05 01:04:05;;;;;;;;;;;16.00;99.90;;;;;;7621250;19;19914;-82
2023/07/05 01:06:39;;;;;;;;;;;16.00;99.90;;;;;;7625350;19;19914;-82
2023/07/05 01:09:12;;;;;;;;;;;16.00;99.90;;;;;;7630373;19;19926;-82
2023/07/05 01:11:45;;;;;;;;;;;15.90;99.90;;;;;;7651000;19;19932;-82
2023/07/05 01:14:17;;;;;;;;;;;15.90;99.90;;;;;;7644440;19;19921;-83
2023/07/05 01:16:55;;;;;;;;;;;15.80;99.90;;;;;;7602103;19;19924;-81
2023/07/05 01:19:34;;;;;;;;;;;15.80;99.90;;;;;;7593454;19;20229;-82
2023/07/05 01:22:11;;;;;;;;;;;15.80;99.90;;;;;;7589644;19;19952;-81
2023/07/05 01:24:58;;;;;;;;;;;15.70;99.90;;;;;;7597865;19;19939;-83
2023/07/05 01:27:56;;;;;;;;;;;15.80;99.90;;;;;;7614593;19;19915;-83
2023/07/05 01:30:52;;;;;;;;;;;15.70;99.90;;;;;;7613472;19;19923;-81
2023/07/05 01:33:29;;;;;;;;;;;15.80;99.90;;;;;;7615385;19;19943;-82
2023/07/05 01:36:02;;;;;;;;;;;16.00;99.90;;;;;;7627379;19;19935;-84
2023/07/05 01:38:35;;;;;;;;;;;16.00;99.90;;;;;;7603548;19;19923;-83
2023/07/05 01:41:08;;;;;;;;;;;16.10;99.90;;;;;;7584201;19;19947;-82
2023/07/05 01:43:41;;;;;;;;;;;16.10;99.90;;;;;;7590211;19;19938;-80
2023/07/05 01:46:23;;;;;;;;;;;16.00;99.90;;;;;;7587417;19;20418;-82
2023/07/05 01:49:02;;;;;;;;;;;16.00;99.90;;;;;;7582017;19;19954;-80
2023/07/05 01:51:46;;;;;;;;;;;15.90;99.90;;;;;;7584916;19;21313;-82
2023/07/05 01:54:25;;;;;;;;;;;16.00;99.90;;;;;;7582912;19;21982;-81
2023/07/05 01:57:04;;;;;;;;;;;16.10;99.90;;;;;;7585969;19;19926;-82
2023/07/05 01:59:46;;;;;;;;;;;16.10;99.90;;;;;;7601163;19;19978;-83
2023/07/05 02:02:19;;;;;;;;;;;16.20;99.90;;;;;;7571704;19;20600;-82
2023/07/05 02:04:52;;;;;;;;;;;16.20;99.90;;;;;;7599712;19;19936;-83
2023/07/05 02:07:25;;;;;;;;;;;16.20;99.90;;;;;;7607341;19;20843;-81
2023/07/05 02:09:57;;;;;;;;;;;16.30;99.90;;;;;;7609627;19;20009;-83
2023/07/05 02:12:31;;;;;;;;;;;16.30;99.90;;;;;;7606802;19;19918;-81
2023/07/05 02:15:03;;;;;;;;;;;16.20;99.90;;;;;;7600090;19;19918;-82
2023/07/05 02:17:35;;;;;;;;;;;16.30;99.90;;;;;;7604817;19;19914;-82
2023/07/05 02:20:09;;;;;;;;;;;16.20;99.90;;;;;;7597542;19;19918;-81
2023/07/05 02:22:42;;;;;;;;;;;16.20;99.90;;;;;;7597318;19;19919;-81
2023/07/05 02:25:14;;;;;;;;;;;16.00;99.90;;;;;;7594620;19;19926;-83
2023/07/05 02:27:46;;;;;;;;;;;16.10;99.90;;;;;;7612114;19;19937;-81
2023/07/05 02:30:19;;;;;;;;;;;16.00;99.90;;;;;;7615636;19;19919;-83
2023/07/05 02:32:51;;;;;;;;;;;16.00;99.90;;;;;;7613802;19;19914;-82
2023/07/05 02:35:23;;;;;;;;;;;15.90;99.90;;;;;;7610826;19;19923;-82
2023/07/05 02:37:58;;;;;;;;;;;15.80;99.90;;;;;;7615027;19;19919;-82
2023/07/05 02:40:31;;;;;;;;;;;15.80;99.90;;;;;;7609513;19;19911;-82
2023/07/05 02:43:03;;;;;;;;;;;15.70;99.90;;;;;;7610905;19;19935;-82
2023/07/05 02:45:36;;;;;;;;;;;15.80;99.90;;;;;;7612054;19;19972;-82
2023/07/05 02:48:08;;;;;;;;;;;15.70;99.90;;;;;;7614086;19;19915;-83
2023/07/05 02:50:41;;;;;;;;;;;15.60;99.90;;;;;;7619585;19;19923;-81
2023/07/05 02:53:13;;;;;;;;;;;15.60;99.90;;;;;;7616298;19;20651;-82
2023/07/05 02:55:45;;;;;;;;;;;15.50;99.90;;;;;;7614296;19;20011;-82
2023/07/05 02:58:17;;;;;;;;;;;15.50;99.90;;;;;;7607898;19;19922;-82
2023/07/05 03:00:50;;;;;;;;;;;15.40;99.90;;;;;;7603823;19;19930;-83
2023/07/05 03:03:22;;;;;;;;;;;15.40;99.90;;;;;;7600060;19;19926;-83
2023/07/05 03:05:55;;;;;;;;;;;15.40;99.90;;;;;;7607356;19;20453;-83
2023/07/05 03:08:29;;;;;;;;;;;15.40;99.90;;;;;;7613309;19;19921;-84
2023/07/05 03:11:01;;;;;;;;;;;15.30;99.90;;;;;;7635602;19;19926;-81
2023/07/05 03:13:34;;;;;;;;;;;15.20;99.90;;;;;;7631051;19;20590;-82
2023/07/05 03:16:07;;;;;;;;;;;15.30;99.90;;;;;;7636056;19;19911;-85
2023/07/05 03:18:40;;;;;;;;;;;15.20;99.90;;;;;;7633651;19;20235;-83
2023/07/05 03:21:12;;;;;;;;;;;15.20;99.90;;;;;;7635307;19;19945;-86
2023/07/05 03:23:46;;;;;;;;;;;15.20;99.90;;;;;;7639597;19;19918;-83
2023/07/05 03:26:19;;;;;;;;;;;15.30;99.90;;;;;;7624910;19;19968;-85
2023/07/05 03:28:52;;;;;;;;;;;15.20;99.90;;;;;;7635101;19;19919;-83
2023/07/05 03:31:25;;;;;;;;;;;15.10;99.90;;;;;;7649700;19;20526;-83
2023/07/05 03:33:58;;;;;;;;;;;15.20;99.90;;;;;;7659207;19;19918;-83
2023/07/05 03:36:34;;;;;;;;;;;15.20;99.90;;;;;;7654591;19;19923;-85
2023/07/05 03:39:07;;;;;;;;;;;15.20;99.90;;;;;;7638293;19;19918;-80
2023/07/05 03:41:39;;;;;;;;;;;15.30;99.90;;;;;;7613828;19;19919;-81
2023/07/05 03:44:12;;;;;;;;;;;15.20;99.90;;;;;;7631221;19;19923;-81
2023/07/05 03:46:44;;;;;;;;;;;15.20;99.90;;;;;;7627766;19;19998;-81
2023/07/05 03:49:17;;;;;;;;;;;15.20;99.90;;;;;;7631456;19;19938;-82
2023/07/05 03:51:50;;;;;;;;;;;15.40;99.90;;;;;;7630696;19;19998;-82
2023/07/05 03:54:25;;;;;;;;;;;15.40;99.90;;;;;;7630685;19;19925;-83
2023/07/05 03:56:58;;;;;;;;;;;15.30;99.90;;;;;;7620407;19;19915;-82
2023/07/05 03:59:30;;;;;;;;;;;15.30;99.90;;;;;;7614284;19;19922;-83
2023/07/05 04:02:04;;;;;;;;;;;15.30;99.90;;;;;;7615059;19;19974;-82
2023/07/05 04:04:36;;;;;;;;;;;15.30;99.90;;;;;;7617239;19;20238;-83
2023/07/05 04:07:08;;;;;;;;;;;15.30;99.90;;;;;;7621551;19;20348;-81
2023/07/05 04:09:40;;;;;;;;;;;15.30;99.90;;;;;;7615399;19;19982;-81
2023/07/05 04:12:13;;;;;;;;;;;15.30;99.90;;;;;;7602254;19;19919;-82
2023/07/05 04:14:46;;;;;;;;;;;15.30;99.90;;;;;;7601094;19;19926;-82
2023/07/05 04:17:18;;;;;;;;;;;15.40;99.90;;;;;;7607018;19;19925;-83
2023/07/05 04:19:50;;;;;;;;;;;15.60;99.90;;;;;;7611144;19;19933;-81
2023/07/05 04:22:22;;;;;;;;;;;15.60;99.90;;;;;;7605736;19;20013;-84
2023/07/05 04:24:54;;;;;;;;;;;15.60;99.90;;;;;;7603116;19;19967;-85
2023/07/05 04:27:27;;;;;;;;;;;15.60;99.90;;;;;;7606666;19;19936;-83
2023/07/05 04:29:59;;;;;;;;;;;15.70;99.90;;;;;;7631022;19;21002;-83
2023/07/05 04:32:32;;;;;;;;;;;15.70;99.90;;;;;;7640617;19;19915;-84
2023/07/05 04:35:04;;;;;;;;;;;15.80;99.90;;;;;;7622432;19;19922;-81
2023/07/05 04:37:37;;;;;;;;;;;15.80;99.90;;;;;;7616116;19;20209;-83
2023/07/05 04:40:10;;;;;;;;;;;16.00;99.90;;;;;;7593968;19;20821;-82
2023/07/05 04:42:42;;;;;;;;;;;16.00;99.90;;;;;;7589325;19;19926;-84
2023/07/05 04:45:16;;;;;;;;;;;16.10;99.90;;;;;;7581136;19;19921;-82
2023/07/05 04:47:48;;;;;;;;;;;16.20;99.90;;;;;;7597619;19;19927;-82
2023/07/05 04:50:20;;;;;;;;;;;16.30;99.90;;;;;;7590481;19;19923;-82
2023/07/05 04:52:53;;;;;;;;;;;16.40;99.90;;;;;;7595523;19;19914;-79
2023/07/05 04:55:25;;;;;;;;;;;16.50;99.90;;;;;;7579715;19;19914;-81
2023/07/05 04:57:59;;;;;;;;;;;16.50;99.90;;;;;;7567807;19;19915;-82
2023/07/05 05:00:31;;;;;;;;;;;16.70;99.90;;;;;;7570764;19;19934;-83
2023/07/05 05:03:03;;;;;;;;;;;16.80;99.90;;;;;;7570949;19;19915;-80
2023/07/05 05:05:35;;;;;;;;;;;16.80;99.90;;;;;;7571341;19;19918;-78
2023/07/05 05:08:07;;;;;;;;;;;17.00;99.90;;;;;;7567655;19;19954;-79
2023/07/05 05:10:40;;;;;;;;;;;17.00;99.90;;;;;;7558890;19;19939;-81
2023/07/05 05:13:13;;;;;;;;;;;17.20;99.90;;;;;;7555699;19;19921;-80
2023/07/05 05:15:45;;;;;;;;;;;17.30;99.90;;;;;;7571775;19;19930;-79
2023/07/05 05:18:18;;;;;;;;;;;;;;;;;;7578094;19;19952;-80
2023/07/05 05:20:51;;;;;;;;;;;;;;;;;;7584477;19;19998;-79
2023/07/05 05:23:24;;;;;;;;;;;;;;;;;;7535886;19;19927;-76
2023/07/05 05:25:56;;;;;;;;;;;;;;;;;;7544042;19;19919;-80
2023/07/05 05:28:30;;;;;;;;;;;17.50;99.90;;;;;;7545189;19;19922;-80
2023/07/05 05:31:07;;;;;;;;;;;18.40;99.90;;;;;;7581706;19;19930;-80
2023/07/05 05:33:40;;;;;;;;;;;18.60;99.90;;;;;;7553654;19;19918;-79
2023/07/05 05:36:14;;;;;;;;;;;18.60;99.90;;;;;;7554839;19;19919;-82
2023/07/05 05:38:46;;;;;;;;;;;18.70;99.90;;;;;;7590600;19;19960;-79
2023/07/05 05:41:19;;;;;;;;;;;18.60;99.90;;;;;;7588762;19;19961;-76
2023/07/05 05:43:51;;;;;;;;;;;18.60;99.90;;;;;;7571485;19;20754;-80
2023/07/05 05:46:24;;;;;;;;;;;18.50;99.90;;;;;;7578504;19;19911;-79
2023/07/05 05:48:57;;;;;;;;;;;18.50;99.90;;;;;;7572502;19;19943;-78
2023/07/05 05:51:29;;;;;;;;;;;18.50;99.90;;;;;;7592518;19;20336;-77
2023/07/05 05:54:02;;;;;;;;;;;18.50;99.90;;;;;;7594974;19;19927;-80
2023/07/05 05:56:37;;;;;;;;;;;18.50;99.90;;;;;;7598467;19;19914;-79
2023/07/05 05:59:09;;;;;;;;;;;18.60;99.90;;;;;;7597634;19;19922;-79
2023/07/05 06:01:44;;;;;;;;;;;18.40;99.90;;;;;;7595933;19;19926;-79
2023/07/05 06:04:18;;;;;;;;;;;18.60;99.90;;;;;;7595778;19;20660;-79
2023/07/05 06:06:50;;;;;;;;;;;18.70;99.90;;;;;;7608413;19;19918;-78
2023/07/05 06:09:24;;;;;;;;;;;18.90;99.90;;;;;;7599289;19;19923;-80
2023/07/05 06:11:56;;;;;;;;;;;18.90;99.90;;;;;;7598134;19;19954;-79
2023/07/05 06:14:28;;;;;;;;;;;19.20;99.90;;;;;;7594986;19;19922;-79
2023/07/05 06:17:02;;;;;;;;;;;;;;;;;;7603526;19;19956;-79
2023/07/05 06:19:35;;;;;;;;;;;;;;;;;;7596404;19;19926;-79
2023/07/05 06:22:07;;;;;;;;;;;;;;;;;;7598965;19;19986;-78
2023/07/05 06:24:42;;;;;;;;;;;;;;;;;;7631554;19;19910;-78
2023/07/05 06:27:16;;;;;;;;;;;;;;;;;;7636723;19;19937;-77
2023/07/05 06:29:49;;;;;;;;;;;;;;;;;;7636592;19;19922;-77
2023/07/05 06:32:22;;;;;;;;;;;;;;;;;;7634428;19;19934;-80
2023/07/05 06:34:54;;;;;;;;;;;;;;;;;;7624616;19;19931;-77
2023/07/05 06:37:27;;;;;;;;;;;;;;;;;;7620640;19;19923;-79
2023/07/05 06:40:00;;;;;;;;;;;;;;;;;;7627883;19;19990;-80
2023/07/05 06:42:33;;;;;;;;;;;;;;;;;;7617599;19;19922;-77
2023/07/05 06:45:11;;;;;;;;;;;;;;;;;;7586450;19;19922;-78
2023/07/05 06:47:45;;;;;;;;;;;;;;;;;;7610120;19;20701;-80
2023/07/05 06:50:18;;;;;;;;;;;;;;;;;;7614427;19;19960;-75
2023/07/05 06:52:51;;;;;;;;;;;;;;;;;;7610552;19;19925;-79
2023/07/05 06:55:34;;;;;;;;;;;;;;;;;;7605826;19;19914;-77
2023/07/05 06:58:07;;;;;;;;;;;;;;;;;;7602635;19;19922;-77
2023/07/05 07:00:40;;;;;;;;;;;;;;;;;;7620948;19;19954;-78
2023/07/05 07:03:12;;;;;;;;;;;;;;;;;;7621065;19;19982;-77
2023/07/05 07:05:45;;;;;;;;;;;;;;;;;;7621055;19;19942;-77
2023/07/05 07:08:18;;;;;;;;;;;;;;;;;;7631463;19;19922;-77
2023/07/05 07:10:50;;;;;;;;;;;;;;;;;;7612005;19;19923;-81
2023/07/05 07:13:25;;;;;;;;;;;;;;;;;;7627722;19;19922;-79
2023/07/05 07:15:57;;;;;;;;;;;;;;;;;;7615390;19;19922;-78
2023/07/05 07:18:30;;;;;;;;;;;;;;;;;;7622884;19;19922;-78
2023/07/05 07:21:02;;;;;;;;;;;;;;;;;;7643525;19;19914;-78
2023/07/05 07:23:36;;;;;;;;;;;;;;;;;;7624071;19;19910;-78
2023/07/05 07:26:08;;;;;;;;;;;;;;;;;;7648054;19;19915;-77
2023/07/05 07:28:41;;;;;;;;;;;;;;;;;;7644440;19;19926;-78
2023/07/05 07:31:14;;;;;;;;;;;;;;;;;;7647159;19;19929;-78
2023/07/05 07:33:46;;;;;;;;;;;;;;;;;;7630630;19;20821;-79
2023/07/05 07:36:19;;;;;;;;;;;;;;;;;;7622812;19;19951;-78
2023/07/05 07:38:52;;;;;;;;;;;;;;;;;;7643537;19;19941;-78
2023/07/05 07:41:24;;;;;;;;;;;;;;;;;;7641578;19;19925;-77
2023/07/05 07:44:00;;;;;;;;;;;19.30;99.90;;;;;;7639948;19;19935;-79
2023/07/05 07:46:33;;;;;;;;;;;20.80;99.90;;;;;;7639516;19;19918;-79
2023/07/05 07:49:06;;;;;;;;;;;20.80;99.90;;;;;;7641701;19;21943;-78
2023/07/05 07:51:40;;;;;;;;;;;20.80;99.90;;;;;;7639473;19;19962;-78
2023/07/05 07:54:16;;;;;;;;;;;21.00;99.90;;;;;;7647258;19;20312;-78
2023/07/05 07:56:48;;;;;;;;;;;21.30;99.90;;;;;;7635693;19;21355;-80
2023/07/05 07:59:23;;;;;;;;;;;21.60;99.90;;;;;;7619477;19;19923;-77
2023/07/05 08:01:56;;;;;;;;;;;21.60;99.90;;;;;;7634089;19;19923;-78
2023/07/05 08:04:28;;;;;;;;;;;21.70;99.90;;;;;;7644398;19;19926;-77
2023/07/05 08:07:01;;;;;;;;;;;21.90;99.90;;;;;;7659543;19;19922;-78
2023/07/05 08:09:33;;;;;;;;;;;22.20;99.90;;;;;;7648508;19;19925;-78
2023/07/05 08:12:05;;;;;;;;;;;22.30;99.90;;;;;;7657726;19;19910;-78
2023/07/05 08:14:38;;;;;;;;;;;;;;;;;;7637804;19;20541;-78
2023/07/05 08:17:10;;;;;;;;;;;22.60;99.90;;;;;;7649065;19;19919;-78
2023/07/05 08:19:43;;;;;;;;;;;23.00;99.30;;;;;;7626350;19;20365;-77
2023/07/05 08:22:15;;;;;;;;;;;23.10;99.70;;;;;;7630321;19;19951;-79
2023/07/05 08:24:50;;;;;;;;;;;23.20;99.30;;;;;;7639849;19;21070;-78
2023/07/05 08:27:22;;;;;;;;;;;23.00;98.00;;;;;;7643018;19;19923;-79
2023/07/05 08:29:54;;;;;;;;;;;22.90;98.30;;;;;;7641924;19;19922;-78
2023/07/05 08:32:26;;;;;;;;;;;22.60;98.50;;;;;;7632301;19;19923;-78
2023/07/05 08:35:00;;;;;;;;;;;22.80;99.20;;;;;;7634629;19;19915;-78
2023/07/05 08:37:34;;;;;;;;;;;22.90;98.80;;;;;;7636513;19;19906;-78
2023/07/05 08:40:08;;;;;;;;;;;23.00;97.90;;;;;;7641723;19;19915;-78
2023/07/05 08:43:01;;;;;;;;;;;23.00;97.00;;;;;;7635212;19;19906;-78
2023/07/05 08:45:45;;;;;;;;;;;23.00;97.80;;;;;;7629428;19;19926;-78
2023/07/05 08:48:17;;;;;;;;;;;23.20;97.90;;;;;;7631726;19;19940;-78
2023/07/05 08:50:55;;;;;;;;;;;23.10;97.40;;;;;;7625465;19;19918;-78
2023/07/05 08:53:48;;;;;;;;;;;23.10;97.10;;;;;;7640442;19;19919;-78
2023/07/05 08:56:26;;;;;;;;;;;23.10;95.90;;;;;;7634790;19;19919;-78
2023/07/05 08:59:07;;;;;;;;;;;22.90;94.80;;;;;;7630693;19;19922;-78
2023/07/05 09:01:40;;;;;;;;;;;23.00;96.00;;;;;;7629840;19;19943;-78
2023/07/05 09:04:17;;;;;;;;;;;23.10;94.90;;;;;;7627081;19;20523;-76
2023/07/05 09:06:58;;;;;;;;;;;23.10;95.10;;;;;;7606481;19;19931;-75
2023/07/05 09:09:49;;;;;;;;;;;23.30;94.30;;;;;;7624532;19;19919;-75
2023/07/05 09:12:24;;;;;;;;;;;23.40;93.60;;;;;;7600439;19;19952;-76
2023/07/05 09:15:15;;;;;;;;;;;23.20;93.30;;;;;;7597500;19;19949;-75
2023/07/05 09:17:52;;;;;;;;;;;23.10;93.00;;;;;;7593055;19;19922;-75
2023/07/05 09:20:31;;;;;;;;;;;23.00;93.70;;;;;;7590736;19;19918;-75
2023/07/05 09:23:06;;;;;;;;;;;23.10;94.00;;;;;;7590410;19;20568;-76
2023/07/05 09:25:41;;;;;;;;;;;23.20;92.80;;;;;;7590730;19;20812;-76
2023/07/05 09:28:34;;;;;;;;;;;23.20;93.30;;;;;;7601585;19;19921;-76
2023/07/05 09:31:13;;;;;;;;;;;23.30;93.60;;;;;;7578231;19;19918;-74
2023/07/05 09:33:48;;;;;;;;;;;23.40;92.30;;;;;;7578290;19;19925;-74
2023/07/05 09:36:23;;;;;;;;;;;23.40;92.00;;;;;;7594802;19;19937;-73
2023/07/05 09:39:00;;;;;;;;;;;23.40;93.10;;;;;;7596283;19;20689;-73
2023/07/05 09:41:35;;;;;;;;;;;23.50;91.80;;;;;;7596580;19;19968;-75
2023/07/05 09:44:08;;;;;;;;;;;23.30;90.50;;;;;;7590372;19;19918;-74
2023/07/05 09:46:40;;;;;;;;;;;23.30;91.20;;;;;;7601761;19;20864;-75
2023/07/05 09:49:14;;;;;;;;;;;23.30;91.80;;;;;;7588897;19;19919;-75
2023/07/05 09:51:46;;;;;;;;;;;23.50;91.70;;;;;;7591514;19;19926;-75
2023/07/05 09:54:21;;;;;;;;;;;23.60;92.40;;;;;;7591839;19;19934;-76
2023/07/05 09:56:54;;;;;;;;;;;23.60;91.50;;;;;;7591260;19;19927;-74
2023/07/05 09:59:26;;;;;;;;;;;23.80;91.80;;;;;;7598115;19;19927;-74
2023/07/05 10:02:12;;;;;;;;;;;24.00;92.00;;;;;;7588282;19;19914;-73
2023/07/05 10:04:46;;;;;;;;;;;24.10;92.20;;;;;;7601237;19;20067;-74
2023/07/05 10:07:21;;;;;;;;;;;24.10;90.80;;;;;;7594765;19;19926;-73
2023/07/05 10:09:56;;;;;;;;;;;24.10;90.30;;;;;;7596607;19;19956;-75
2023/07/05 10:12:36;;;;;;;;;;;24.20;91.00;;;;;;7591618;19;19929;-74
2023/07/05 10:15:21;;;;;;;;;;;24.20;90.10;;;;;;7585194;19;20277;-75
2023/07/05 10:17:55;;;;;;;;;;;24.20;89.60;;;;;;7595326;19;20460;-75
2023/07/05 10:20:31;;;;;;;;;;;24.10;90.00;;;;;;7580395;19;19990;-74
2023/07/05 10:23:05;;;;;;;;;;;24.30;91.00;;;;;;7572600;19;19956;-74
2023/07/05 10:25:39;;;;;;;;;;;24.50;90.30;;;;;;7588186;19;19918;-75
2023/07/05 10:28:14;;;;;;;;;;;24.80;89.50;;;;;;7596735;19;19931;-75
2023/07/05 10:30:53;;;;;;;;;;;24.90;88.70;;;;;;7594646;19;19922;-74
2023/07/05 10:33:27;;;;;;;;;;;25.00;88.90;;;;;;7591963;19;19922;-74
2023/07/05 10:36:09;;;;;;;;;;;25.20;86.50;;;;;;7596720;19;21130;-75
2023/07/05 10:38:42;;;;;;;;;;;24.90;87.60;;;;;;7592014;19;19930;-75
2023/07/05 10:41:20;;;;;;;;;;;24.80;87.90;;;;;;7599035;19;19933;-75
2023/07/05 10:43:55;;;;;;;;;;;24.80;87.50;;;;;;7595318;19;20338;-75
2023/07/05 10:46:28;;;;;;;;;;;24.50;87.60;;;;;;7595685;19;19931;-79
2023/07/05 10:49:01;;;;;;;;;;;24.50;89.20;;;;;;7587026;19;20498;-79
2023/07/05 10:51:34;;;;;;;;;;;24.70;89.30;;;;;;7593619;19;19958;-79
2023/07/05 10:54:14;;;;;;;;;;;24.70;88.80;;;;;;7594992;19;19939;-76
2023/07/05 10:56:47;;;;;;;;;;;24.70;90.40;;;;;;7597112;19;19925;-78
2023/07/05 10:59:28;;;;;;;;;;;24.50;89.00;;;;;;7591335;19;20444;-77
2023/07/05 11:02:11;;;;;;;;;;;24.20;90.10;;;;;;7589299;19;19923;-77
2023/07/05 11:04:44;;;;;;;;;;;24.20;90.20;;;;;;7599874;19;19934;-79
2023/07/05 11:07:17;;;;;;;;;;;24.20;91.10;;;;;;7601312;19;19949;-79
2023/07/05 11:09:51;;;;;;;;;;;24.10;91.60;;;;;;7597510;19;19928;-78
2023/07/05 11:12:28;;;;;;;;;;;23.80;91.00;;;;;;7571738;19;19928;-77
2023/07/05 11:15:01;;;;;;;;;;;23.40;91.40;;;;;;7593423;19;19915;-77
2023/07/05 11:17:36;;;;;;;;;;;23.10;92.20;;;;;;7568374;19;19935;-78
2023/07/05 11:20:47;;;;;;;;;;;23.10;92.30;;;;;;7567716;19;19922;-76
2023/07/05 11:23:39;;;;;;;;;;;22.90;92.40;;;;;;7592422;19;19911;-76
2023/07/05 11:26:27;;;;;;;;;;;22.90;93.50;;;;;;7596773;19;19911;-76
2023/07/05 11:29:00;;;;;;;;;;;22.80;93.60;;;;;;7595744;19;19933;-76
2023/07/05 11:31:42;;;;;;;;;;;22.70;94.40;;;;;;7596512;19;19955;-77
2023/07/05 11:34:20;;;;;;;;;;;22.90;94.40;;;;;;7579470;19;19951;-76
2023/07/05 11:36:54;;;;;;;;;;;23.10;94.70;;;;;;7569829;19;19914;-76
2023/07/05 11:39:26;;;;;;;;;;;22.90;95.60;;;;;;7574270;19;19938;-76
2023/07/05 11:42:12;;;;;;;;;;;22.80;94.30;;;;;;7586052;19;20338;-76
2023/07/05 11:44:46;;;;;;;;;;;22.80;94.80;;;;;;7571141;19;19928;-75
2023/07/05 11:47:24;;;;;;;;;;;22.80;95.80;;;;;;7580411;19;19918;-76
2023/07/05 11:50:09;;;;;;;;;;;22.60;96.40;;;;;;7591889;19;20002;-77
2023/07/05 11:52:57;;;;;;;;;;;22.50;96.50;;;;;;7600832;19;19926;-78
2023/07/05 11:55:31;;;;;;;;;;;21.80;94.30;;;;;;7609612;19;19915;-78
2023/07/05 11:58:17;;;;;;;;;;;21.80;94.40;;;;;;7600514;19;20511;-79
2023/07/05 12:00:51;;;;;;;;;;;21.60;93.70;;;;;;7600883;19;19919;-78
2023/07/05 12:03:24;;;;;;;;;;;21.30;93.90;;;;;;7612145;19;19924;-77
2023/07/05 12:06:12;;;;;;;;;;;21.20;94.80;;;;;;7612676;19;19923;-78
2023/07/05 12:08:49;;;;;;;;;;;21.10;94.70;;;;;;7620644;19;20006;-78
2023/07/05 12:11:37;;;;;;;;;;;21.20;94.50;;;;;;7626543;19;19953;-79
2023/07/05 12:14:14;;;;;;;;;;;21.10;94.40;;;;;;7623533;19;19914;-77
2023/07/05 12:16:47;;;;;;;;;;;20.90;93.80;;;;;;7635172;19;19922;-78
2023/07/05 12:19:22;;;;;;;;;;;20.80;95.30;;;;;;7633367;19;20781;-78
2023/07/05 12:21:58;;;;;;;;;;;20.50;95.90;;;;;;7615780;19;20811;-78
2023/07/05 12:24:42;;;;;;;;;;;20.30;96.50;;;;;;7618598;19;19931;-78
2023/07/05 12:27:35;;;;;;;;;;;20.20;97.30;;;;;;7620779;19;20066;-79
2023/07/05 12:30:19;;;;;;;;;;;20.00;99.90;;;;;;7608853;19;19966;-79
2023/07/05 12:32:53;;;;;;;;;;;19.80;99.90;;;;;;7617876;19;20763;-78
2023/07/05 12:35:26;;;;;;;;;;;19.50;99.90;;;;;;7603763;19;19922;-78
2023/07/05 12:37:59;;;;;;;;;;;19.30;99.90;;;;;;7614676;19;20705;-79
2023/07/05 12:40:35;;;;;;;;;;;19.00;99.90;;;;;;7617154;19;19923;-78
2023/07/05 12:43:09;;;;;;;;;;;19.00;99.90;;;;;;7609496;19;19947;-78
2023/07/05 12:45:43;;;;;;;;;;;18.90;99.90;;;;;;7610356;19;19931;-80
2023/07/05 12:48:20;;;;;;;;;;;19.00;99.90;;;;;;7582943;19;19975;-78
2023/07/05 12:51:03;;;;;;;;;;;18.70;99.90;;;;;;7597902;19;19945;-79
2023/07/05 12:53:35;;;;;;;;;;;18.80;99.90;;;;;;7610643;19;19926;-79
2023/07/05 12:56:11;;;;;;;;;;;18.70;99.90;;;;;;7619678;19;19930;-81
2023/07/05 12:58:52;;;;;;;;;;;18.70;99.90;;;;;;7613584;19;20373;-78
2023/07/05 13:01:31;;;;;;;;;;;18.70;99.90;;;;;;7594429;19;19918;-77
2023/07/05 13:04:11;;;;;;;;;;;18.70;99.90;;;;;;7596561;19;19918;-76
2023/07/05 13:06:46;;;;;;;;;;;18.70;99.90;;;;;;7593895;19;19925;-77
2023/07/05 13:09:28;;;;;;;;;;;18.70;99.90;;;;;;7593076;19;19926;-78
2023/07/05 13:12:03;;;;;;;;;;;18.80;99.90;;;;;;7598513;19;20871;-80
2023/07/05 13:14:37;;;;;;;;;;;18.60;99.90;;;;;;7595486;19;19923;-80
2023/07/05 13:17:10;;;;;;;;;;;18.50;99.90;;;;;;7592797;19;20771;-78
2023/07/05 13:19:44;;;;;;;;;;;18.30;99.90;;;;;;7600658;19;21413;-81
2023/07/05 13:22:26;;;;;;;;;;;18.20;99.90;;;;;;7591790;19;19923;-79
2023/07/05 13:24:59;;;;;;;;;;;18.20;99.90;;;;;;7595596;19;20001;-80
2023/07/05 13:27:34;;;;;;;;;;;18.20;99.90;;;;;;7615687;19;19923;-79
2023/07/05 13:30:14;;;;;;;;;;;18.10;99.90;;;;;;7584974;19;19960;-77
2023/07/05 13:32:50;;;;;;;;;;;18.10;99.90;;;;;;7607513;19;19919;-81
2023/07/05 13:35:23;;;;;;;;;;;18.00;99.90;;;;;;7600640;19;19910;-79
2023/07/05 13:37:56;;;;;;;;;;;18.20;99.90;;;;;;7589448;19;20554;-80
2023/07/05 13:40:31;;;;;;;;;;;18.30;99.90;;;;;;7587301;19;19930;-81
2023/07/05 13:43:04;;;;;;;;;;;18.20;99.90;;;;;;7577110;19;19923;-78
2023/07/05 13:45:39;;;;;;;;;;;18.10;99.90;;;;;;7613228;19;19918;-78
2023/07/05 13:48:12;;;;;;;;;;;18.40;99.90;;;;;;7634816;19;19914;-77
2023/07/05 13:50:44;;;;;;;;;;;18.50;99.90;;;;;;7628974;19;19957;-78
2023/07/05 13:53:19;;;;;;;;;;;18.50;99.90;;;;;;7603633;19;19932;-78
2023/07/05 13:55:51;;;;;;;;;;;18.70;99.90;;;;;;7605366;19;19960;-78
2023/07/05 13:58:23;;;;;;;;;;;18.80;99.90;;;;;;7561901;19;19919;-78
2023/07/05 14:00:56;;;;;;;;;;;18.80;99.90;;;;;;7572846;19;19917;-77
2023/07/05 14:03:28;;;;;;;;;;;18.90;99.90;;;;;;7598699;19;19918;-78
2023/07/05 14:06:18;;;;;;;;;;;19.00;99.90;;;;;;7604288;19;20630;-78
2023/07/05 14:08:50;;;;;;;;;;;19.30;99.90;;;;;;7609036;19;20022;-79
2023/07/05 14:11:27;;;;;;;;;;;19.50;99.90;;;;;;7591922;19;19918;-78
2023/07/05 14:14:00;;;;;;;;;;;19.50;99.90;;;;;;7598394;19;19925;-77
2023/07/05 14:16:33;;;;;;;;;;;19.60;99.90;;;;;;7600421;19;19945;-79
2023/07/05 14:19:06;;;;;;;;;;;19.60;99.90;;;;;;7601640;19;19923;-78
2023/07/05 14:21:39;;;;;;;;;;;19.80;99.90;;;;;;7599179;19;19943;-80
2023/07/05 14:24:12;;;;;;;;;;;19.70;99.90;;;;;;7594443;19;19914;-80
2023/07/05 14:26:44;;;;;;;;;;;19.80;99.90;;;;;;7604904;19;20372;-77
2023/07/05 14:29:16;;;;;;;;;;;19.50;99.90;;;;;;7603269;19;19923;-78
2023/07/05 14:31:49;;;;;;;;;;;19.60;99.90;;;;;;7609246;19;19925;-78
2023/07/05 14:34:22;;;;;;;;;;;19.50;99.90;;;;;;7603601;19;20318;-79
2023/07/05 14:36:54;;;;;;;;;;;19.60;99.90;;;;;;7605340;19;19919;-78
2023/07/05 14:39:27;;;;;;;;;;;19.50;99.90;;;;;;7605157;19;20022;-79
2023/07/05 14:42:00;;;;;;;;;;;19.50;99.90;;;;;;7608007;19;19951;-79
2023/07/05 14:44:32;;;;;;;;;;;19.50;99.90;;;;;;7601435;19;19930;-77
2023/07/05 14:47:07;;;;;;;;;;;19.50;99.90;;;;;;7601098;19;19971;-77
2023/07/05 14:49:42;;;;;;;;;;;19.60;99.90;;;;;;7608340;19;19919;-77
2023/07/05 14:52:14;;;;;;;;;;;19.70;99.90;;;;;;7598090;19;19925;-79
2023/07/05 14:54:46;;;;;;;;;;;19.80;99.90;;;;;;7596189;19;20386;-78
2023/07/05 14:57:19;;;;;;;;;;;19.80;99.90;;;;;;7584872;19;20598;-78
2023/07/05 14:59:52;;;;;;;;;;;19.90;99.90;;;;;;7590949;19;20607;-78
2023/07/05 15:02:24;;;;;;;;;;;20.00;99.90;;;;;;7598629;19;20762;-78
2023/07/05 15:04:56;;;;;;;;;;;20.10;99.90;;;;;;7598715;19;19983;-78
2023/07/05 15:07:29;;;;;;;;;;;20.30;99.90;;;;;;7601623;19;20499;-78
2023/07/05 15:10:02;;;;;;;;;;;20.50;99.90;;;;;;7600222;19;19944;-77
2023/07/05 15:12:39;;;;;;;;;;;20.60;99.90;;;;;;7598607;19;21244;-79
2023/07/05 15:15:18;;;;;;;;;;;21.00;99.90;;;;;;7571159;19;20050;-78
2023/07/05 15:17:50;;;;;;;;;;;21.70;99.90;;;;;;7612393;19;21099;-78